Ephrata, WA (98823)

11:17 PM PDT on March 22, 2017 (GMT -0700)
Grandview Hts | | Change Station

Elev 1138 ft 47.33 °N, 119.56 °W | Updated 2 minutes ago

Clear
Clear
39.2 °F
Feels Like 36 °F
N
4.2
Wind Variable Wind from West
Gusts 4.7 mph

Today
High -- | Low -- °F
--% Chance of Precip.
Yesterday
High -- | Low -- °F
Precip. -- in
Pressure 29.95 in
Visibility 10.0 miles
Clouds Clear
Windchill 36 °F
Dew Point 34 °F
Humidity 80%
Rainfall 0.07 in
Snow Depth Not available.
6:56 AM 7:14 PM
Waning Crescent, 26% visible
METAR KEPH 230553Z AUTO 27005KT 10SM CLR 06/M01 A2993 RMK AO2 SLP142 60004 T00611006 10128 20039 51019
Pressure 29.95 in
Visibility 10.0 miles
Clouds Clear
Windchill 36 °F
Dew Point 34 °F
Humidity 80%
Rainfall 0.07 in
Snow Depth Not available.
6:56 AM 7:14 PM
Waning Crescent, 26% visible
METAR KEPH 230553Z AUTO 27005KT 10SM CLR 06/M01 A2993 RMK AO2 SLP142 60004 T00611006 10128 20039 51019

Get Severe Weather Alerts

Thanks for signing up!

Be on the lookout for a verification email in your inbox.

You'll start receiving the daily forecast at 8 AM.

×

10-Day Weather Forecast

Almanac

Astronomy

Mar. 22, 2017 Rise Set
Actual Time
Civil Twilight
Nautical Twilight
Astronomical Twilight
Moon
Length of Visible Light
Length of Day
Tomorrow will be .
, % of the Moon is Illuminated

Today's Extremes

State Highs State Lows

Community

WunderPhotos

Upload Photos

1,962,540 photos uploaded!

WunderBlog® & News

Nearby

Air Quality

  Air Quality AQ Index Pollutant
Not available.

Snow Depth

Station Depth Elevation

Earthquake Activity

City Distance Mag. Time & Date
Minimum magnitude displayed is 2.5.

Earthquake Activity

City Distance Mag. Time & Date
Minimum magnitude displayed is 2.5.

Coastal Water Temperatures

Place Temperature

Stations

Nearby Weather Stations

Station Location Temp. Windchill Dew Point Humidity Wind Precip. Elev Updated Type
                   

Watches & Warnings

There are currently no watches in effect.